Time;durP1;ratioP1;P1;durP2;ratioP2;P2;SDS_P1;SDS_P2;PMS_P1;PMS_P2;Temp;Humidity;BMP_temperature;BMP_pressure;BME280_temperature;BME280_humidity;BME280_pressure;Samples;Min_cycle;Max_cycle;Signal;HPM_P1;HPM_P2
2023/07/01 00:01:35;;;;;;;4.05;2.88;;;;;18.10;98162.00;;;;5054360;28;20510;-71
2023/07/01 00:04:02;;;;;;;4.32;3.20;;;;;18.10;98152.00;;;;5036446;28;20052;-70
2023/07/01 00:06:29;;;;;;;4.35;3.47;;;;;18.10;98151.00;;;;5053017;28;20484;-70
2023/07/01 00:08:56;;;;;;;4.80;3.25;;;;;18.10;98150.00;;;;5053363;28;20045;-71
2023/07/01 00:11:22;;;;;;;3.20;2.88;;;;;18.10;98142.00;;;;5053615;28;20037;-70
2023/07/01 00:13:49;;;;;;;5.95;3.10;;;;;17.90;98139.00;;;;5053952;28;20494;-70
2023/07/01 00:16:16;;;;;;;4.50;3.42;;;;;17.80;98133.00;;;;5053834;28;20127;-70
2023/07/01 00:18:45;;;;;;;4.18;3.60;;;;;17.60;98131.00;;;;5053472;28;20048;-70
2023/07/01 00:21:12;;;;;;;2.92;2.63;;;;;17.60;98133.00;;;;5052349;28;20049;-70
2023/07/01 00:23:38;;;;;;;4.20;3.22;;;;;17.80;98125.00;;;;5053484;28;20076;-71
2023/07/01 00:26:05;;;;;;;6.03;3.70;;;;;17.80;98120.00;;;;5053422;28;20542;-71
2023/07/01 00:28:31;;;;;;;3.28;2.97;;;;;17.70;98125.00;;;;5053507;28;20490;-70
2023/07/01 00:30:58;;;;;;;3.45;3.13;;;;;17.80;98124.00;;;;5051761;28;20041;-70
2023/07/01 00:33:25;;;;;;;3.63;2.60;;;;;17.80;98125.00;;;;5053421;28;20040;-71
2023/07/01 00:35:51;;;;;;;2.90;2.70;;;;;17.70;98120.00;;;;5053491;28;20051;-71
2023/07/01 00:38:18;;;;;;;3.90;2.83;;;;;17.60;98112.00;;;;5035263;28;20051;-70
2023/07/01 00:40:45;;;;;;;4.60;2.83;;;;;17.50;98114.00;;;;5051934;28;20045;-71
2023/07/01 00:43:12;;;;;;;7.00;2.85;;;;;17.50;98114.00;;;;5052237;28;20059;-71
2023/07/01 00:45:38;;;;;;;4.45;2.50;;;;;17.30;98112.00;;;;5053347;28;20136;-70
2023/07/01 00:48:06;;;;;;;3.70;2.35;;;;;17.20;98115.00;;;;5051751;28;20049;-70
2023/07/01 00:50:33;;;;;;;3.00;2.70;;;;;17.10;98104.00;;;;5052658;28;20127;-71
2023/07/01 00:53:00;;;;;;;3.53;3.05;;;;;17.00;98110.00;;;;5053304;28;20068;-70
2023/07/01 00:55:26;;;;;;;3.83;2.72;;;;;16.90;98105.00;;;;5051062;28;20049;-70
2023/07/01 00:57:53;;;;;;;5.28;3.15;;;;;16.80;98104.00;;;;5051464;28;20557;-70
2023/07/01 01:00:19;;;;;;;3.85;2.90;;;;;16.90;98114.00;;;;5051337;28;20051;-72
2023/07/01 01:02:57;;;;;;;4.07;2.85;;;;;17.00;98108.00;;;;5053348;28;20041;-71
2023/07/01 01:05:31;;;;;;;3.28;2.95;;;;;16.90;98105.00;;;;5053035;28;20054;-71
2023/07/01 01:08:03;;;;;;;;;;;;;16.90;98102.00;;;;5051946;28;20458;-71
2023/07/01 01:10:32;;;;;;;3.72;2.80;;;;;17.00;98105.00;;;;5053060;28;20012;-71
2023/07/01 01:13:01;;;;;;;3.00;2.70;;;;;16.80;98099.00;;;;5053194;28;20072;-71
2023/07/01 01:15:28;;;;;;;3.50;2.80;;;;;16.50;98097.00;;;;5052456;28;20558;-68
2023/07/01 01:17:57;;;;;;;5.10;3.05;;;;;16.50;98093.00;;;;5051241;28;20478;-69
2023/07/01 01:20:30;;;;;;;3.42;2.50;;;;;16.40;98088.00;;;;5052464;28;20132;-69
2023/07/01 01:23:03;;;;;;;3.97;3.00;;;;;16.30;98090.00;;;;5051624;28;20122;-69
2023/07/01 01:25:45;;;;;;;3.70;3.17;;;;;16.30;98088.00;;;;5035568;28;20049;-69
2023/07/01 01:28:13;;;;;;;4.80;2.97;;;;;16.40;98085.00;;;;5051207;28;20057;-69
2023/07/01 01:30:39;;;;;;;3.83;3.08;;;;;16.40;98077.00;;;;5052398;28;20036;-69
2023/07/01 01:33:06;;;;;;;5.20;2.88;;;;;16.40;98074.00;;;;5051378;28;20059;-69
2023/07/01 01:35:32;;;;;;;3.53;3.00;;;;;16.30;98074.00;;;;5050837;28;20088;-69
2023/07/01 01:38:19;;;;;;;3.83;2.72;;;;;16.30;98074.00;;;;5034652;28;20059;-69
2023/07/01 01:40:58;;;;;;;3.45;3.10;;;;;16.30;98073.00;;;;5050850;28;20135;-69
2023/07/01 01:43:28;;;;;;;4.05;2.97;;;;;16.30;98075.00;;;;5052293;28;20048;-68
2023/07/01 01:45:55;;;;;;;5.13;3.00;;;;;16.10;98076.00;;;;5051394;28;20079;-69
2023/07/01 01:48:22;;;;;;;4.05;2.83;;;;;16.10;98072.00;;;;5052525;28;20045;-70
2023/07/01 01:50:51;;;;;;;4.03;3.10;;;;;16.10;98069.00;;;;5051620;28;20041;-68
2023/07/01 01:53:19;;;;;;;4.93;3.40;;;;;16.10;98062.00;;;;5055459;28;20051;-70
2023/07/01 01:55:46;;;;;;;3.72;3.22;;;;;16.10;98070.00;;;;5038501;28;20055;-69
2023/07/01 01:58:14;;;;;;;3.03;2.72;;;;;16.10;98063.00;;;;5051069;28;20053;-70
2023/07/01 02:00:40;;;;;;;3.28;2.90;;;;;16.10;98060.00;;;;5051039;28;20098;-70
2023/07/01 02:03:07;;;;;;;3.15;2.85;;;;;16.00;98060.00;;;;5051091;28;20539;-70
2023/07/01 02:05:34;;;;;;;4.05;3.13;;;;;16.10;98056.00;;;;5034970;28;20426;-70
2023/07/01 02:08:03;;;;;;;3.35;2.95;;;;;16.10;98060.00;;;;5054483;28;20086;-70
2023/07/01 02:10:32;;;;;;;4.93;3.65;;;;;16.00;98065.00;;;;5038349;28;20049;-70
2023/07/01 02:12:59;;;;;;;3.30;3.00;;;;;16.10;98063.00;;;;5054878;28;20053;-70
2023/07/01 02:15:25;;;;;;;4.40;3.17;;;;;16.10;98059.00;;;;5056377;28;20047;-69
2023/07/01 02:17:55;;;;;;;4.35;3.00;;;;;16.10;98060.00;;;;5055208;28;20059;-70
2023/07/01 02:20:22;;;;;;;3.67;3.00;;;;;16.00;98052.00;;;;5038243;28;20056;-70
2023/07/01 02:22:49;;;;;;;4.45;3.05;;;;;16.10;98051.00;;;;5054538;28;20147;-70
2023/07/01 02:25:15;;;;;;;5.80;2.78;;;;;16.00;98048.00;;;;5038301;28;20135;-71
2023/07/01 02:27:42;;;;;;;5.47;3.03;;;;;16.00;98052.00;;;;5054057;28;20136;-70
2023/07/01 02:30:08;;;;;;;3.58;3.15;;;;;16.00;98052.00;;;;5054120;28;20140;-71
2023/07/01 02:32:35;;;;;;;4.90;3.40;;;;;16.00;98053.00;;;;5054223;28;20055;-70
2023/07/01 02:35:02;;;;;;;3.70;2.83;;;;;16.10;98050.00;;;;5054356;28;20045;-70
2023/07/01 02:37:28;;;;;;;3.67;3.15;;;;;16.10;98046.00;;;;5055352;28;20490;-71
2023/07/01 02:39:55;;;;;;;3.03;2.78;;;;;16.00;98045.00;;;;5055085;28;20114;-70
2023/07/01 02:42:21;;;;;;;3.15;2.80;;;;;16.10;98047.00;;;;5053907;28;20045;-70
2023/07/01 02:44:49;;;;;;;3.58;3.28;;;;;16.20;98053.00;;;;5055547;28;20076;-70
2023/07/01 02:47:16;;;;;;;7.65;3.47;;;;;16.30;98054.00;;;;5055783;28;20049;-70
2023/07/01 02:49:43;;;;;;;3.75;3.10;;;;;16.40;98049.00;;;;5037591;28;20053;-70
2023/07/01 02:52:11;;;;;;;3.40;2.50;;;;;16.50;98045.00;;;;5054164;28;20099;-70
2023/07/01 02:54:39;;;;;;;5.90;2.40;;;;;16.60;98044.00;;;;5054124;28;20175;-70
2023/07/01 02:57:10;;;;;;;4.38;2.10;;;;;16.70;98044.00;;;;5056777;28;20053;-70
2023/07/01 02:59:37;;;;;;;2.67;2.25;;;;;16.80;98040.00;;;;5058767;28;20044;-69
2023/07/01 03:02:05;;;;;;;6.25;2.58;;;;;16.90;98033.00;;;;5058138;28;20133;-70
2023/07/01 03:04:35;;;;;;;3.88;2.30;;;;;17.00;98036.00;;;;5058861;28;20102;-70
2023/07/01 03:07:01;;;;;;;2.30;2.10;;;;;17.10;98032.00;;;;5059197;28;20040;-69
2023/07/01 03:09:28;;;;;;;3.70;2.15;;;;;17.10;98037.00;;;;5057158;28;20052;-70
2023/07/01 03:11:55;;;;;;;2.97;2.05;;;;;17.20;98040.00;;;;5058110;28;20044;-70
2023/07/01 03:14:22;;;;;;;4.72;2.38;;;;;17.20;98041.00;;;;5055331;28;20045;-70
2023/07/01 03:16:52;;;;;;;3.33;2.20;;;;;17.30;98034.00;;;;5060918;28;20095;-69
2023/07/01 03:19:19;;;;;;;2.42;1.73;;;;;17.30;98035.00;;;;5070204;28;20049;-70
2023/07/01 03:21:46;;;;;;;5.47;2.13;;;;;17.30;98032.00;;;;5049622;28;20102;-70
2023/07/01 03:24:13;;;;;;;3.42;1.90;;;;;17.30;98035.00;;;;5069311;28;20045;-70
2023/07/01 03:26:42;;;;;;;4.75;2.22;;;;;17.30;98033.00;;;;5068865;28;20056;-70
2023/07/01 03:29:09;;;;;;;4.32;2.10;;;;;17.30;98038.00;;;;5068806;28;20111;-70
2023/07/01 03:31:36;;;;;;;3.42;1.83;;;;;17.40;98035.00;;;;5069246;28;20057;-70
2023/07/01 03:34:02;;;;;;;3.63;2.00;;;;;17.40;98039.00;;;;5070884;28;20047;-70
2023/07/01 03:36:29;;;;;;;3.35;1.85;;;;;17.40;98029.00;;;;5070464;28;20060;-70
2023/07/01 03:38:58;;;;;;;3.00;2.10;;;;;17.40;98036.00;;;;5069706;28;20492;-70
2023/07/01 03:41:24;;;;;;;3.45;2.10;;;;;17.50;98038.00;;;;5048826;28;20051;-70
2023/07/01 03:43:51;;;;;;;3.53;2.13;;;;;17.50;98026.00;;;;5062951;28;20072;-71
2023/07/01 03:46:18;;;;;;;3.05;1.77;;;;;17.50;98031.00;;;;5047661;28;20061;-69
2023/07/01 03:48:44;;;;;;;3.72;2.10;;;;;17.50;98039.00;;;;5063146;28;20048;-70
2023/07/01 03:51:11;;;;;;;3.75;2.20;;;;;17.50;98037.00;;;;5046614;28;20144;-70
2023/07/01 03:53:37;;;;;;;4.53;2.15;;;;;17.50;98035.00;;;;5064356;28;20096;-70
2023/07/01 03:56:04;;;;;;;5.57;1.83;;;;;17.50;98040.00;;;;5061000;28;20053;-70
2023/07/01 03:58:30;;;;;;;4.82;2.40;;;;;17.60;98035.00;;;;5061826;28;20049;-69
2023/07/01 04:00:57;;;;;;;3.40;2.13;;;;;17.70;98034.00;;;;5061054;28;20087;-70
2023/07/01 04:03:24;;;;;;;2.25;1.92;;;;;17.70;98027.00;;;;5060626;28;20045;-71
2023/07/01 04:05:52;;;;;;;3.50;2.00;;;;;17.70;98027.00;;;;5063762;28;20036;-71
2023/07/01 04:08:21;;;;;;;5.13;2.05;;;;;17.70;98022.00;;;;5063857;28;20064;-70
2023/07/01 04:10:50;;;;;;;3.92;1.80;;;;;17.70;98024.00;;;;5065313;28;20051;-70
2023/07/01 04:13:17;;;;;;;3.45;2.00;;;;;17.80;98024.00;;;;5062399;28;20052;-70
2023/07/01 04:15:44;;;;;;;5.65;2.28;;;;;17.80;98016.00;;;;5063749;28;20089;-69
2023/07/01 04:18:10;;;;;;;2.97;1.70;;;;;17.80;98025.00;;;;5065467;28;20460;-69
2023/07/01 04:20:37;;;;;;;3.67;1.85;;;;;17.80;98013.00;;;;5065498;28;20045;-70
2023/07/01 04:23:04;;;;;;;3.17;1.88;;;;;17.80;98015.00;;;;5064830;28;20037;-70
2023/07/01 04:25:30;;;;;;;7.75;2.13;;;;;17.80;98010.00;;;;5063381;28;20049;-70
2023/07/01 04:27:57;;;;;;;4.72;2.53;;;;;17.80;98010.00;;;;5062860;28;20567;-70
2023/07/01 04:30:24;;;;;;;5.32;2.78;;;;;17.80;98012.00;;;;5059294;28;20044;-70
2023/07/01 04:32:50;;;;;;;2.60;1.85;;;;;17.80;98004.00;;;;5060404;28;20061;-70
2023/07/01 04:35:17;;;;;;;2.15;1.70;;;;;17.90;98004.00;;;;5059213;28;20091;-70
2023/07/01 04:37:44;;;;;;;3.40;2.25;;;;;17.90;98001.00;;;;5041578;28;20106;-70
2023/07/01 04:40:12;;;;;;;4.07;2.30;;;;;18.00;97997.00;;;;5058360;28;20517;-70
2023/07/01 04:42:49;;;;;;;5.80;2.38;;;;;18.00;97994.00;;;;5055705;28;20039;-70
2023/07/01 04:45:18;;;;;;;5.40;2.38;;;;;18.00;98003.00;;;;5053450;28;20049;-70
2023/07/01 04:47:46;;;;;;;8.55;2.60;;;;;18.00;97999.00;;;;5052522;28;20563;-69
2023/07/01 04:50:13;;;;;;;5.07;2.40;;;;;18.10;98005.00;;;;5052223;28;20045;-69
2023/07/01 04:52:40;;;;;;;6.30;1.95;;;;;18.10;98006.00;;;;5052399;28;20047;-69
2023/07/01 04:55:07;;;;;;;6.82;2.50;;;;;18.10;98007.00;;;;5053117;28;20037;-69
2023/07/01 04:57:34;;;;;;;3.35;2.60;;;;;18.10;97996.00;;;;5035273;28;20574;-68
2023/07/01 05:00:09;;;;;;;3.67;2.05;;;;;18.10;98003.00;;;;5052770;28;20080;-68
2023/07/01 05:02:36;;;;;;;3.17;2.40;;;;;18.10;98000.00;;;;5052982;28;20124;-68
2023/07/01 05:05:03;;;;;;;2.97;1.83;;;;;18.10;98001.00;;;;5051938;28;20075;-69
2023/07/01 05:07:30;;;;;;;3.15;2.03;;;;;18.20;98004.00;;;;5051397;28;20041;-69
2023/07/01 05:09:57;;;;;;;6.22;3.58;;;;;18.20;98003.00;;;;5052461;28;20456;-69
2023/07/01 05:12:23;;;;;;;3.88;2.65;;;;;18.20;98000.00;;;;5051651;28;20100;-69
2023/07/01 05:14:50;;;;;;;2.22;1.98;;;;;18.20;97995.00;;;;5052869;28;20554;-69
2023/07/01 05:17:16;;;;;;;2.00;1.80;;;;;18.30;97995.00;;;;5051453;28;20051;-69
2023/07/01 05:19:43;;;;;;;2.53;1.90;;;;;18.30;97992.00;;;;5034639;28;20045;-69
2023/07/01 05:22:09;;;;;;;6.10;2.35;;;;;18.40;97997.00;;;;5052684;28;20120;-69
2023/07/01 05:24:36;;;;;;;3.38;1.92;;;;;18.50;97996.00;;;;5051093;28;20080;-69
2023/07/01 05:27:03;;;;;;;6.82;2.20;;;;;18.70;97996.00;;;;5051051;28;20049;-70
2023/07/01 05:29:29;;;;;;;4.20;1.98;;;;;18.70;97996.00;;;;5051082;28;20079;-69
2023/07/01 05:31:56;;;;;;;10.88;5.35;;;;;18.90;97998.00;;;;5052234;28;20051;-69
2023/07/01 05:34:24;;;;;;;3.28;2.20;;;;;19.00;97996.00;;;;5052621;28;20135;-69
2023/07/01 05:36:51;;;;;;;4.32;2.28;;;;;19.10;97992.00;;;;5050980;28;20088;-69
2023/07/01 05:39:17;;;;;;;5.18;2.13;;;;;19.20;98001.00;;;;5051914;28;20060;-69
2023/07/01 05:41:44;;;;;;;6.30;3.00;;;;;19.30;98007.00;;;;5050893;28;20398;-69
2023/07/01 05:44:11;;;;;;;6.35;2.80;;;;;19.40;98004.00;;;;5051326;28;20045;-69
2023/07/01 05:46:40;;;;;;;3.88;2.33;;;;;19.50;98004.00;;;;5051248;28;20139;-70
2023/07/01 05:49:08;;;;;;;3.90;2.50;;;;;19.70;97998.00;;;;5051499;28;20493;-69
2023/07/01 05:51:34;;;;;;;3.53;2.05;;;;;19.70;98013.00;;;;5053120;28;20120;-70
2023/07/01 05:54:01;;;;;;;5.13;2.20;;;;;19.70;98000.00;;;;5052101;28;20080;-71
2023/07/01 05:56:30;;;;;;;4.82;2.42;;;;;19.80;98003.00;;;;5051308;28;20563;-71
2023/07/01 05:58:56;;;;;;;4.07;2.30;;;;;19.80;97995.00;;;;5052001;28;20490;-69
2023/07/01 06:01:23;;;;;;;2.45;1.67;;;;;19.80;98004.00;;;;5052474;28;20123;-70
2023/07/01 06:03:50;;;;;;;7.18;2.20;;;;;19.80;98000.00;;;;5052287;28;20048;-69
2023/07/01 06:06:26;;;;;;;5.47;1.95;;;;;19.80;98001.00;;;;5052115;28;20136;-70
2023/07/01 06:08:53;;;;;;;4.38;2.15;;;;;19.90;98001.00;;;;5052086;28;20072;-70
2023/07/01 06:11:19;;;;;;;3.88;2.30;;;;;20.00;98001.00;;;;5052226;28;20441;-70
2023/07/01 06:13:49;;;;;;;11.25;2.15;;;;;20.10;97996.00;;;;5052495;28;20043;-70
2023/07/01 06:16:17;;;;;;;2.30;2.10;;;;;20.10;97991.00;;;;5052533;28;20052;-70
2023/07/01 06:18:46;;;;;;;2.97;2.33;;;;;20.10;97997.00;;;;5052370;28;20052;-70
2023/07/01 06:21:13;;;;;;;3.60;2.35;;;;;20.20;97996.00;;;;5052593;28;20045;-70
2023/07/01 06:23:40;;;;;;;7.30;2.30;;;;;20.30;97987.00;;;;5055742;28;20116;-70
2023/07/01 06:26:07;;;;;;;6.28;2.80;;;;;20.40;97985.00;;;;5055574;28;20561;-70
2023/07/01 06:28:33;;;;;;;5.07;2.55;;;;;20.70;97973.00;;;;5053450;28;20091;-70
2023/07/01 06:31:00;;;;;;;7.60;3.00;;;;;20.90;97972.00;;;;5054357;28;20072;-70
2023/07/01 06:33:27;;;;;;;3.22;2.38;;;;;21.10;97983.00;;;;5054234;28;20045;-68
2023/07/01 06:35:53;;;;;;;4.78;2.30;;;;;21.20;97978.00;;;;5056385;28;20048;-69
2023/07/01 06:38:20;;;;;;;4.25;2.42;;;;;21.20;97971.00;;;;5055441;28;20073;-69
2023/07/01 06:40:47;;;;;;;3.38;1.70;;;;;21.40;97975.00;;;;5055033;28;20079;-70
2023/07/01 06:43:14;;;;;;;7.05;2.47;;;;;21.50;97973.00;;;;5055532;28;20472;-69
2023/07/01 06:45:43;;;;;;;3.63;2.05;;;;;21.60;97974.00;;;;5054815;28;20068;-70
2023/07/01 06:48:10;;;;;;;3.03;1.80;;;;;21.60;97975.00;;;;5055230;28;20048;-70
2023/07/01 06:50:36;;;;;;;7.97;2.00;;;;;21.70;97974.00;;;;5054209;28;20589;-69
2023/07/01 06:53:03;;;;;;;6.53;2.20;;;;;21.70;97974.00;;;;5056012;28;20076;-69
2023/07/01 06:55:30;;;;;;;4.65;2.00;;;;;21.60;97965.00;;;;5056851;28;20041;-69
2023/07/01 06:57:57;;;;;;;3.33;2.22;;;;;21.50;97962.00;;;;5040741;28;20049;-70
2023/07/01 07:00:24;;;;;;;4.18;1.90;;;;;21.50;97963.00;;;;5058230;28;20048;-71
2023/07/01 07:02:51;;;;;;;3.03;2.08;;;;;21.60;97961.00;;;;5058502;28;20033;-70
2023/07/01 07:05:18;;;;;;;4.10;2.35;;;;;21.50;97971.00;;;;5058212;28;20051;-71
2023/07/01 07:07:45;;;;;;;6.25;2.70;;;;;21.40;97968.00;;;;5060227;28;20128;-72
2023/07/01 07:10:12;;;;;;;8.93;2.03;;;;;21.40;97967.00;;;;5061262;28;20577;-72
2023/07/01 07:12:41;;;;;;;5.47;2.10;;;;;21.30;97972.00;;;;5061003;28;20041;-71
2023/07/01 07:15:08;;;;;;;3.42;1.70;;;;;21.20;97959.00;;;;5061367;28;20223;-69
2023/07/01 07:17:35;;;;;;;4.43;2.22;;;;;21.20;97968.00;;;;5059545;28;20048;-71
2023/07/01 07:20:02;;;;;;;3.92;1.90;;;;;21.20;97960.00;;;;5061169;28;20119;-70
2023/07/01 07:22:31;;;;;;;2.72;2.10;;;;;21.20;97963.00;;;;5060805;28;20056;-71
2023/07/01 07:24:58;;;;;;;7.22;2.38;;;;;21.30;97963.00;;;;5060444;28;20502;-68
2023/07/01 07:27:25;;;;;;;2.05;1.85;;;;;21.40;97970.00;;;;5062900;28;20048;-70
2023/07/01 07:29:51;;;;;;;3.50;1.83;;;;;21.30;97968.00;;;;5060929;28;20055;-69
2023/07/01 07:32:18;;;;;;;3.28;1.95;;;;;21.40;97953.00;;;;5060654;28;20041;-70
2023/07/01 07:34:44;;;;;;;2.63;1.52;;;;;21.70;97943.00;;;;5060872;28;20537;-70
2023/07/01 07:37:11;;;;;;;5.63;1.60;;;;;21.90;97940.00;;;;5059233;28;20049;-71
2023/07/01 07:39:38;;;;;;;5.22;1.85;;;;;22.00;97952.00;;;;5060576;28;20049;-71
2023/07/01 07:42:05;;;;;;;5.50;2.58;;;;;22.30;97949.00;;;;5060443;28;20135;-70
2023/07/01 07:44:31;;;;;;;5.93;3.42;;;;;22.40;97953.00;;;;5060985;28;20037;-71
2023/07/01 07:46:59;;;;;;;4.18;2.47;;;;;22.60;97951.00;;;;5057719;28;20123;-72
2023/07/01 07:49:27;;;;;;;2.28;1.80;;;;;22.60;97947.00;;;;5057142;28;20052;-70
2023/07/01 07:51:53;;;;;;;4.20;2.20;;;;;22.50;97948.00;;;;5038408;28;20509;-70
2023/07/01 07:54:20;;;;;;;1.95;1.50;;;;;22.50;97948.00;;;;5055293;28;20041;-71
2023/07/01 07:56:47;;;;;;;10.00;1.85;;;;;22.40;97949.00;;;;5055048;28;20170;-70
2023/07/01 07:59:14;;;;;;;5.28;2.08;;;;;22.30;97947.00;;;;5056223;28;20045;-71
2023/07/01 08:01:40;;;;;;;6.65;1.90;;;;;22.30;97945.00;;;;5054924;28;20047;-71
2023/07/01 08:04:07;;;;;;;4.53;2.03;;;;;22.20;97947.00;;;;5056357;28;20045;-69
2023/07/01 08:06:34;;;;;;;7.05;3.65;;;;;22.10;97941.00;;;;5055739;28;20135;-71
2023/07/01 08:09:01;;;;;;;6.20;4.30;;;;;22.10;97951.00;;;;5055878;28;20560;-72
2023/07/01 08:11:27;;;;;;;2.63;1.77;;;;;22.00;97929.00;;;;5054579;28;20510;-68
2023/07/01 08:13:54;;;;;;;3.38;2.67;;;;;22.10;97943.00;;;;5055496;28;20036;-69
2023/07/01 08:16:20;;;;;;;4.30;3.45;;;;;22.10;97944.00;;;;5054081;28;20111;-69
2023/07/01 08:18:47;;;;;;;6.57;2.85;;;;;22.10;97944.00;;;;5054181;28;20076;-69
2023/07/01 08:21:14;;;;;;;3.30;2.30;;;;;22.00;97944.00;;;;5036854;28;20049;-70
2023/07/01 08:23:40;;;;;;;7.95;2.40;;;;;22.00;97943.00;;;;5053037;28;20056;-69
2023/07/01 08:26:07;;;;;;;5.45;3.50;;;;;22.00;97936.00;;;;5053434;28;20421;-70
2023/07/01 08:28:34;;;;;;;6.65;2.75;;;;;21.80;97939.00;;;;5053593;28;20072;-71
2023/07/01 08:31:00;;;;;;;4.03;2.30;;;;;21.80;97945.00;;;;5053871;28;20053;-71
2023/07/01 08:33:28;;;;;;;5.38;3.30;;;;;21.70;97940.00;;;;5053965;28;20480;-70
2023/07/01 08:35:57;;;;;;;6.45;4.32;;;;;21.60;97938.00;;;;5052703;28;20049;-69
2023/07/01 08:38:23;;;;;;;3.53;2.70;;;;;21.50;97938.00;;;;5036190;28;20049;-70
2023/07/01 08:40:54;;;;;;;3.92;2.35;;;;;21.50;97928.00;;;;5054221;28;20052;-70
2023/07/01 08:43:24;;;;;;;4.57;2.13;;;;;21.50;97930.00;;;;5053258;28;20148;-70
2023/07/01 08:45:52;;;;;;;12.02;4.18;;;;;21.50;97938.00;;;;5055018;28;20041;-70
2023/07/01 08:48:21;;;;;;;3.25;2.38;;;;;21.50;97927.00;;;;5053877;28;20049;-72
2023/07/01 08:51:07;;;;;;;4.47;2.28;;;;;21.40;97928.00;;;;5056723;28;20052;-71
2023/07/01 08:53:33;;;;;;;7.65;2.40;;;;;21.50;97923.00;;;;5055626;28;20116;-70
2023/07/01 08:56:00;;;;;;;8.63;3.28;;;;;21.60;97925.00;;;;5054642;28;20037;-70
2023/07/01 08:58:28;;;;;;;4.47;2.28;;;;;21.60;97931.00;;;;5054607;28;20466;-71
2023/07/01 09:00:56;;;;;;;4.10;2.42;;;;;21.60;97930.00;;;;5053123;28;20041;-70
2023/07/01 09:03:27;;;;;;;6.10;2.40;;;;;21.60;97932.00;;;;5053882;28;20146;-71
2023/07/01 09:05:54;;;;;;;4.13;2.60;;;;;21.60;97922.00;;;;5054109;28;20082;-71
2023/07/01 09:08:21;;;;;;;3.83;2.60;;;;;21.60;97913.00;;;;5053676;28;20136;-71
2023/07/01 09:10:47;;;;;;;2.78;1.70;;;;;21.50;97920.00;;;;5052430;28;20057;-71
2023/07/01 09:16:11;;;;;;;4.72;1.60;;;;;21.40;97913.00;;;;5010855;28;20092;-71
2023/07/01 09:18:43;;;;;;;3.88;2.83;;;;;21.40;97910.00;;;;5012085;28;20494;-71
2023/07/01 09:21:17;;;;;;;3.33;1.80;;;;;21.40;97907.00;;;;5011496;28;20133;-71
2023/07/01 09:23:46;;;;;;;6.68;2.03;;;;;21.30;97902.00;;;;5012893;28;20509;-71
2023/07/01 09:26:19;;;;;;;2.33;1.83;;;;;21.30;97912.00;;;;5011742;28;20046;-70
2023/07/01 09:28:47;;;;;;;3.08;1.65;;;;;21.30;97901.00;;;;5011483;28;20506;-71
2023/07/01 09:31:16;;;;;;;1.58;1.42;;;;;21.30;97915.00;;;;5012503;28;20506;-71
2023/07/01 09:34:01;;;;;;;3.95;1.52;;;;;21.40;97905.00;;;;5027868;28;20051;-70
2023/07/01 09:36:30;;;;;;;6.30;2.28;;;;;21.30;97900.00;;;;5011658;28;20050;-70
2023/07/01 09:38:58;;;;;;;5.18;1.85;;;;;21.40;97904.00;;;;5011051;28;20111;-70
2023/07/01 09:41:26;;;;;;;2.65;1.70;;;;;21.50;97908.00;;;;5012597;28;20081;-70
2023/07/01 09:43:55;;;;;;;4.75;1.33;;;;;21.50;97908.00;;;;5011498;28;20132;-71
2023/07/01 09:46:22;;;;;;;2.97;1.83;;;;;21.60;97897.00;;;;5012793;28;20490;-71
2023/07/01 09:48:54;;;;;;;2.78;1.73;;;;;21.70;97903.00;;;;5011298;28;20081;-72
2023/07/01 09:51:26;;;;;;;3.50;2.22;;;;;21.60;97894.00;;;;5012672;28;20482;-70
2023/07/01 09:53:53;;;;;;;4.10;1.80;;;;;21.60;97905.00;;;;5012459;28;20050;-70
2023/07/01 09:56:20;;;;;;;3.63;1.65;;;;;21.70;97898.00;;;;5012577;28;20050;-70
2023/07/01 09:58:49;;;;;;;4.03;2.22;;;;;21.80;97893.00;;;;5011224;28;20053;-70
2023/07/01 10:01:17;;;;;;;4.47;1.70;;;;;21.90;97890.00;;;;5011913;28;20042;-70
2023/07/01 10:03:44;;;;;;;2.47;1.60;;;;;22.00;97880.00;;;;5012368;28;20504;-70
2023/07/01 10:06:12;;;;;;;2.22;1.75;;;;;22.10;97892.00;;;;5010999;28;20045;-70
2023/07/01 10:08:41;;;;;;;4.45;2.03;;;;;22.10;97885.00;;;;5012553;28;20050;-70
2023/07/01 10:11:13;;;;;;;3.33;1.80;;;;;22.00;97897.00;;;;5012066;28;20045;-70
2023/07/01 10:13:52;;;;;;;5.15;1.52;;;;;22.00;97890.00;;;;5012177;28;20057;-70
2023/07/01 10:16:19;;;;;;;5.72;2.05;;;;;22.00;97885.00;;;;5027594;28;20050;-70
2023/07/01 10:18:47;;;;;;;2.58;1.67;;;;;22.10;97893.00;;;;5011045;28;20046;-70
2023/07/01 10:21:22;;;;;;;3.40;1.85;;;;;22.20;97880.00;;;;5011767;28;20073;-70
2023/07/01 10:23:50;;;;;;;2.38;2.05;;;;;22.10;97882.00;;;;4994420;28;20133;-70
2023/07/01 10:26:59;;;;;;;2.75;1.70;;;;;22.10;97897.00;;;;5027577;28;20046;-70
2023/07/01 10:29:26;;;;;;;2.63;1.67;;;;;22.00;97886.00;;;;5027604;28;20140;-70
2023/07/01 10:32:11;;;;;;;4.00;1.80;;;;;22.00;97883.00;;;;5016138;28;20100;-70
2023/07/01 10:34:53;;;;;;;3.30;2.10;;;;;22.20;97881.00;;;;5015860;28;20088;-70
2023/07/01 10:37:22;;;;;;;3.63;2.47;;;;;22.30;97885.00;;;;5014894;28;20073;-70
2023/07/01 10:39:49;;;;;;;2.97;2.05;;;;;22.30;97880.00;;;;5016072;28;20041;-70
2023/07/01 10:42:32;;;;;;;4.40;2.08;;;;;22.40;97873.00;;;;5031359;28;20502;-71
2023/07/01 10:45:11;;;;;;;1.98;1.77;;;;;22.60;97870.00;;;;5016465;28;20479;-70
2023/07/01 10:47:43;;;;;;;6.30;2.33;;;;;22.70;97877.00;;;;4998514;28;20127;-70
2023/07/01 10:50:11;;;;;;;4.00;2.10;;;;;22.80;97870.00;;;;5015488;28;20050;-70
2023/07/01 10:52:57;;;;;;;3.25;1.90;;;;;23.00;97868.00;;;;5016044;28;20060;-71
2023/07/01 10:55:38;;;;;;;4.57;1.80;;;;;23.10;97872.00;;;;5015991;28;20052;-70
2023/07/01 10:58:23;;;;;;;3.47;2.05;;;;;23.10;97861.00;;;;5016008;28;20042;-69
2023/07/01 11:00:52;;;;;;;3.83;2.13;;;;;23.20;97850.00;;;;5030436;28;20077;-70
2023/07/01 11:03:36;;;;;;;2.58;1.70;;;;;23.40;97855.00;;;;5014378;28;20054;-70
2023/07/01 11:06:10;;;;;;;5.13;1.98;;;;;23.50;97851.00;;;;5015928;28;20046;-71
2023/07/01 11:08:51;;;;;;;2.70;1.73;;;;;23.60;97854.00;;;;5014863;28;20104;-70
2023/07/01 11:11:23;;;;;;;3.30;1.80;;;;;23.70;97848.00;;;;5015305;28;20049;-70
2023/07/01 11:14:01;;;;;;;2.75;1.83;;;;;23.60;97840.00;;;;5014042;28;20096;-69
2023/07/01 11:16:28;;;;;;;8.18;2.97;;;;;23.60;97842.00;;;;5015474;28;20120;-69
2023/07/01 11:19:00;;;;;;;4.22;1.85;;;;;23.50;97860.00;;;;5014908;28;20145;-68
2023/07/01 11:21:29;;;;;;;7.35;1.75;;;;;23.30;97852.00;;;;5014350;28;20046;-68
2023/07/01 11:23:56;;;;;;;2.40;1.60;;;;;23.30;97850.00;;;;5015327;28;20038;-69
2023/07/01 11:26:39;;;;;;;3.60;1.70;;;;;23.40;97843.00;;;;5030567;28;20501;-71
2023/07/01 11:29:10;;;;;;;;;;;;;23.60;97834.00;;;;5015340;28;20577;-67
2023/07/01 11:31:37;;;;;;;2.70;1.40;;;;;23.60;97840.00;;;;5014078;28;19921;-68
2023/07/01 11:34:04;;;;;;;2.13;1.75;;;;;23.60;97832.00;;;;5013899;28;20092;-69
2023/07/01 11:36:38;;;;;;;2.42;1.25;;;;;23.70;97825.00;;;;5015522;28;20044;-69
2023/07/01 11:39:16;;;;;;;8.52;3.28;;;;;24.10;97825.00;;;;5012478;28;20100;-68
2023/07/01 11:41:57;;;;;;;3.00;1.73;;;;;24.10;97833.00;;;;5030779;28;20145;-69
2023/07/01 11:44:32;;;;;;;3.58;1.40;;;;;24.00;97828.00;;;;5015076;28;20038;-69
2023/07/01 11:46:58;;;;;;;8.43;1.70;;;;;24.00;97823.00;;;;5015286;28;20076;-68
2023/07/01 11:49:26;;;;;;;3.03;1.58;;;;;23.90;97833.00;;;;5014504;28;20052;-68
2023/07/01 11:52:03;;;;;;;1.73;1.50;;;;;23.90;97821.00;;;;5014369;28;20096;-68
2023/07/01 11:54:39;;;;;;;2.08;1.83;;;;;24.00;97818.00;;;;5029804;28;20042;-69
2023/07/01 11:57:17;;;;;;;3.67;1.70;;;;;24.00;97821.00;;;;5013674;28;20056;-68
2023/07/01 11:59:58;;;;;;;2.10;1.77;;;;;24.10;97817.00;;;;5012852;28;20069;-68
2023/07/01 12:02:34;;;;;;;2.67;1.38;;;;;24.30;97826.00;;;;5013457;28;20556;-70
2023/07/01 12:05:02;;;;;;;4.75;1.65;;;;;24.30;97821.00;;;;5015095;28;20042;-69
2023/07/01 12:07:29;;;;;;;2.20;1.33;;;;;24.20;97819.00;;;;5014178;28;20076;-73
2023/07/01 12:10:16;;;;;;;3.38;1.40;;;;;24.20;97823.00;;;;5012803;28;20532;-70
2023/07/01 12:12:43;;;;;;;1.80;1.20;;;;;24.00;97817.00;;;;5013677;28;20107;-70
2023/07/01 12:15:10;;;;;;;4.72;1.60;;;;;24.00;97815.00;;;;5013320;28;20050;-70
2023/07/01 12:17:37;;;;;;;3.63;2.35;;;;;24.20;97821.00;;;;5014397;28;20088;-70
2023/07/01 12:20:08;;;;;;;3.17;1.60;;;;;24.20;97816.00;;;;5012534;28;20050;-69
2023/07/01 12:22:36;;;;;;;3.13;2.15;;;;;24.20;97821.00;;;;5013243;28;20420;-70
2023/07/01 12:25:03;;;;;;;8.20;1.70;;;;;24.10;97818.00;;;;5012870;28;20038;-70
2023/07/01 12:27:30;;;;;;;4.07;1.77;;;;;24.10;97814.00;;;;5012939;28;20049;-70
2023/07/01 12:29:57;;;;;;;4.78;1.65;;;;;24.20;97813.00;;;;5028905;28;20453;-73